Time;durP1;ratioP1;P1;durP2;ratioP2;P2;SDS_P1;SDS_P2;PMS_P1;PMS_P2;Temp;Humidity;BMP_temperature;BMP_pressure;BME280_temperature;BME280_humidity;BME280_pressure;Samples;Min_cycle;Max_cycle;Signal;HPM_P1;HPM_P2
2022/12/26 00:00:12;;;;;;;14.77;7.53;;;9.40;99.90;;;;;;5117037;27;20039;-88
2022/12/26 00:02:38;;;;;;;14.05;7.90;;;9.40;99.90;;;;;;5109645;27;20031;-90
2022/12/26 00:05:04;;;;;;;14.27;7.53;;;9.40;99.90;;;;;;5117104;27;20488;-89
2022/12/26 00:07:29;;;;;;;14.10;7.38;;;9.40;99.90;;;;;;5112206;28;20048;-90
2022/12/26 00:09:55;;;;;;;12.77;7.45;;;9.40;99.90;;;;;;5113516;27;20053;-88
2022/12/26 00:12:20;;;;;;;14.35;7.68;;;9.40;99.90;;;;;;5114541;27;20389;-89
2022/12/26 00:14:46;;;;;;;12.82;6.78;;;9.40;99.90;;;;;;5099087;28;20044;-89
2022/12/26 00:17:12;;;;;;;11.70;6.47;;;9.40;99.90;;;;;;5096292;28;20035;-89
2022/12/26 00:19:37;;;;;;;13.27;6.80;;;9.40;99.90;;;;;;5103953;28;20046;-89
2022/12/26 00:22:03;;;;;;;13.32;7.32;;;9.40;99.90;;;;;;5114312;28;20128;-89
2022/12/26 00:24:29;;;;;;;11.63;6.43;;;9.40;99.90;;;;;;5119216;27;20134;-89
2022/12/26 00:26:54;;;;;;;13.65;7.18;;;9.40;99.90;;;;;;5123926;27;20042;-89
2022/12/26 00:29:21;;;;;;;11.88;6.97;;;9.40;99.90;;;;;;5122274;27;20058;-89
2022/12/26 00:31:48;;;;;;;12.65;6.55;;;9.40;99.90;;;;;;5138357;27;20106;-89
2022/12/26 00:34:14;;;;;;;13.35;7.38;;;9.40;99.90;;;;;;5127155;27;20050;-89
2022/12/26 00:36:40;;;;;;;13.02;6.53;;;9.40;99.90;;;;;;5142022;27;20035;-90
2022/12/26 00:39:05;;;;;;;13.98;7.00;;;9.40;99.90;;;;;;5127225;27;20041;-89
2022/12/26 00:41:32;;;;;;;13.35;6.93;;;9.40;99.90;;;;;;5126068;27;20031;-88
2022/12/26 00:43:57;;;;;;;13.18;6.65;;;9.40;99.90;;;;;;5123834;27;20484;-89
2022/12/26 00:46:24;;;;;;;12.35;6.25;;;9.40;99.90;;;;;;5126944;27;20045;-89
2022/12/26 00:48:50;;;;;;;11.90;6.43;;;9.30;99.90;;;;;;5122254;27;20055;-89
2022/12/26 00:51:16;;;;;;;11.80;6.75;;;9.40;99.90;;;;;;5127204;27;20137;-89
2022/12/26 00:53:42;;;;;;;13.75;6.50;;;9.40;99.90;;;;;;5125961;27;20489;-89
2022/12/26 00:56:08;;;;;;;12.38;6.43;;;9.30;99.90;;;;;;5119037;27;20043;-89
2022/12/26 00:58:33;;;;;;;12.73;6.53;;;9.30;99.90;;;;;;5125132;27;20038;-89
2022/12/26 01:01:08;;;;;;;11.82;6.07;;;9.30;99.90;;;;;;5142103;27;20030;-89
2022/12/26 01:03:33;;;;;;;12.77;6.97;;;9.30;99.90;;;;;;5126257;27;20083;-89
2022/12/26 01:06:02;;;;;;;13.00;6.78;;;9.30;99.90;;;;;;5123716;27;20039;-89
2022/12/26 01:08:27;;;;;;;13.18;7.18;;;9.30;99.90;;;;;;5125492;27;20041;-89
2022/12/26 01:10:53;;;;;;;13.35;7.22;;;9.30;99.90;;;;;;5124063;27;20047;-90
2022/12/26 01:13:18;;;;;;;13.90;7.35;;;9.30;99.90;;;;;;5122853;27;20045;-89
2022/12/26 01:15:51;;;;;;;12.40;6.47;;;9.30;99.90;;;;;;5124287;27;20459;-89
2022/12/26 01:18:18;;;;;;;12.80;6.72;;;9.30;99.90;;;;;;5142937;27;20482;-89
2022/12/26 01:20:44;;;;;;;11.98;6.57;;;9.30;99.90;;;;;;5125901;27;20043;-90
2022/12/26 01:23:10;;;;;;;12.05;6.45;;;9.30;99.90;;;;;;5123808;27;20037;-89
2022/12/26 01:25:35;;;;;;;12.43;6.20;;;9.30;99.90;;;;;;5142365;27;20050;-88
2022/12/26 01:28:01;;;;;;;11.48;5.85;;;9.30;99.90;;;;;;5111830;27;20040;-89
2022/12/26 01:30:26;;;;;;;11.50;6.60;;;9.30;99.90;;;;;;5098028;28;20047;-89
2022/12/26 01:32:52;;;;;;;12.57;6.55;;;9.20;99.90;;;;;;5094861;28;20051;-90
2022/12/26 01:35:17;;;;;;;11.35;6.43;;;9.30;99.90;;;;;;5103023;27;20106;-89
2022/12/26 01:37:43;;;;;;;12.02;6.07;;;9.20;99.90;;;;;;5115030;27;20446;-89
2022/12/26 01:40:11;;;;;;;11.65;5.93;;;9.30;99.90;;;;;;5110852;28;20036;-89
2022/12/26 01:42:39;;;;;;;13.23;6.68;;;9.20;99.90;;;;;;5112987;27;20043;-89
2022/12/26 01:45:29;;;;;;;12.30;6.38;;;9.20;99.90;;;;;;5115237;27;20039;-89
2022/12/26 01:48:13;;;;;;;13.93;7.38;;;9.20;99.90;;;;;;5133167;27;20035;-89
2022/12/26 01:50:54;;;;;;;12.82;6.70;;;9.20;99.90;;;;;;5115210;27;20114;-90
2022/12/26 01:53:28;;;;;;;13.40;6.90;;;9.20;99.90;;;;;;5108484;27;20120;-90
2022/12/26 01:56:15;;;;;;;13.77;7.78;;;9.20;99.90;;;;;;5133118;27;20492;-89
2022/12/26 01:58:52;;;;;;;12.57;6.88;;;9.20;99.90;;;;;;5097846;27;20413;-89
2022/12/26 02:01:19;;;;;;;14.70;8.52;;;9.20;99.90;;;;;;5100140;28;20045;-89
2022/12/26 02:06:32;;;;;;;16.92;9.57;;;9.20;99.90;;;;;;5132036;27;20047;-90
2022/12/26 02:08:58;;;;;;;14.55;8.27;;;9.20;99.90;;;;;;5114590;27;20415;-89
2022/12/26 02:11:34;;;;;;;17.45;9.80;;;9.20;99.90;;;;;;5109326;28;20561;-89
2022/12/26 02:14:01;;;;;;;16.50;9.68;;;9.20;99.90;;;;;;5129940;27;20046;-89
2022/12/26 02:16:26;;;;;;;16.58;10.07;;;9.20;99.90;;;;;;5114432;27;20047;-89
2022/12/26 02:18:52;;;;;;;16.95;10.15;;;9.20;99.90;;;;;;5101962;28;20118;-89
2022/12/26 02:21:39;;;;;;;18.42;11.00;;;9.20;99.90;;;;;;5093923;28;20085;-89
2022/12/26 02:24:22;;;;;;;19.08;10.88;;;9.20;99.90;;;;;;5093403;28;20035;-89
2022/12/26 02:27:26;;;;;;;18.33;10.93;;;9.20;99.90;;;;;;5109888;27;20506;-89
2022/12/26 02:30:35;;;;;;;16.52;9.45;;;9.20;99.90;;;;;;5114135;27;20051;-90
2022/12/26 02:33:21;;;;;;;18.23;10.60;;;9.20;99.90;;;;;;5025271;28;20041;-89
2022/12/26 02:36:13;;;;;;;19.60;10.05;;;9.20;99.90;;;;;;4982826;28;20054;-89
2022/12/26 02:38:59;;;;;;;17.67;10.18;;;9.30;99.90;;;;;;5008951;28;20584;-90
2022/12/26 02:41:50;;;;;;;16.63;9.30;;;9.20;99.90;;;;;;5012650;28;20042;-90
2022/12/26 02:47:32;;;;;;;16.35;8.88;;;9.20;99.90;;;;;;5012160;28;20057;-89
2022/12/26 03:13:11;;;;;;;22.88;12.27;;;9.40;99.90;;;;;;5113835;28;20043;-90
2022/12/26 03:18:42;;;;;;;22.90;12.50;;;9.40;99.90;;;;;;5101000;28;20051;-89
2022/12/26 03:21:08;;;;;;;22.98;12.77;;;9.40;99.90;;;;;;5093414;28;20043;-89
2022/12/26 03:23:37;;;;;;;23.42;13.90;;;9.40;99.90;;;;;;5098511;28;20045;-89
2022/12/26 03:30:47;;;;;;;24.67;12.13;;;9.40;99.90;;;;;;5113641;28;20121;-89
2022/12/26 03:31:41;;;;;;;22.30;12.73;;;9.40;99.90;;;;;;5109317;28;20051;-89
2022/12/26 03:34:18;;;;;;;26.63;13.98;;;9.40;99.90;;;;;;5109966;28;20162;-89
2022/12/26 03:37:27;;;;;;;24.50;13.35;;;9.40;99.90;;;;;;5102141;28;20169;-89
2022/12/26 04:44:13;;;;;;;22.67;12.43;;;9.50;99.90;;;;;;5131637;27;20043;-89
2022/12/26 04:46:41;;;;;;;20.75;11.60;;;9.50;99.90;;;;;;5116359;27;20054;-89
2022/12/26 04:51:56;;;;;;;25.05;12.30;;;9.50;99.90;;;;;;5116159;27;20051;-89
2022/12/26 04:54:24;;;;;;;22.88;12.98;;;9.50;99.90;;;;;;5113194;27;20043;-89
2022/12/26 04:56:50;;;;;;;21.05;11.23;;;9.50;99.90;;;;;;5095710;28;20420;-89
2022/12/26 04:59:16;;;;;;;24.92;13.27;;;9.50;99.90;;;;;;5095381;27;20126;-90
2022/12/26 05:10:31;;;;;;;23.40;13.10;;;9.50;99.90;;;;;;5095107;27;20044;-90
2022/12/26 05:12:57;;;;;;;21.63;12.05;;;9.40;99.90;;;;;;5100738;28;20069;-90
2022/12/26 05:15:23;;;;;;;24.65;12.63;;;9.40;99.90;;;;;;5095321;28;20040;-90
2022/12/26 05:29:00;;;;;;;24.98;12.68;;;9.40;99.90;;;;;;5114506;27;20442;-90
2022/12/26 05:31:25;;;;;;;22.38;13.55;;;9.40;99.90;;;;;;5115033;27;20061;-91
2022/12/26 05:34:11;;;;;;;20.67;11.55;;;9.40;99.90;;;;;;5114661;27;20126;-90
2022/12/26 05:36:40;;;;;;;20.05;10.45;;;9.40;99.90;;;;;;5114978;27;20407;-90
2022/12/26 05:39:07;;;;;;;24.70;14.00;;;9.40;99.90;;;;;;5115086;27;20042;-90
2022/12/26 05:41:33;;;;;;;20.30;11.93;;;9.40;99.90;;;;;;5123007;27;20047;-90
2022/12/26 05:43:59;;;;;;;24.70;13.75;;;9.40;99.90;;;;;;5094521;28;20039;-90
2022/12/26 05:46:25;;;;;;;23.65;12.52;;;9.40;99.90;;;;;;5094654;28;20100;-90
2022/12/26 05:48:50;;;;;;;23.00;12.82;;;9.30;99.90;;;;;;5132608;27;20574;-90
2022/12/26 05:51:16;;;;;;;23.48;12.95;;;9.30;99.90;;;;;;5115063;27;20519;-90
2022/12/26 05:53:41;;;;;;;19.45;11.70;;;9.30;99.90;;;;;;5103130;28;20036;-90
2022/12/26 05:56:11;;;;;;;22.35;13.00;;;9.30;99.90;;;;;;5111216;28;20055;-90
2022/12/26 05:58:38;;;;;;;22.58;13.10;;;9.30;99.90;;;;;;5087721;28;20123;-89
2022/12/26 06:01:09;;;;;;;22.00;13.38;;;9.30;99.90;;;;;;5112581;28;20076;-90
2022/12/26 06:03:35;;;;;;;22.05;11.73;;;9.30;99.90;;;;;;5105440;27;20037;-90
2022/12/26 06:06:00;;;;;;;23.17;13.18;;;9.30;99.90;;;;;;5114738;27;20122;-89
2022/12/26 06:08:27;;;;;;;23.50;13.00;;;9.30;99.90;;;;;;5114359;27;20047;-90
2022/12/26 06:10:52;;;;;;;21.77;12.88;;;9.20;99.90;;;;;;5104700;28;20632;-90
2022/12/26 06:13:18;;;;;;;20.90;11.52;;;9.20;99.90;;;;;;5112256;28;20153;-90
2022/12/26 06:15:44;;;;;;;19.30;10.95;;;9.10;99.90;;;;;;5094056;27;20452;-90
2022/12/26 06:18:09;;;;;;;21.83;11.77;;;9.10;99.90;;;;;;5094571;28;20047;-90
2022/12/26 06:20:37;;;;;;;19.95;12.70;;;9.10;99.90;;;;;;5077270;28;20492;-90
2022/12/26 06:23:03;;;;;;;21.98;11.55;;;9.10;99.90;;;;;;5104818;27;20073;-90
2022/12/26 06:25:28;;;;;;;24.17;13.50;;;9.10;99.90;;;;;;5132806;27;20120;-90
2022/12/26 06:27:54;;;;;;;21.95;13.02;;;9.10;99.90;;;;;;5104713;27;20516;-90
2022/12/26 06:30:20;;;;;;;20.25;11.73;;;9.10;99.90;;;;;;5132506;27;20073;-90
2022/12/26 06:32:45;;;;;;;22.30;12.35;;;9.10;99.90;;;;;;5108219;28;20460;-89
2022/12/26 06:35:11;;;;;;;21.45;11.93;;;9.10;99.90;;;;;;5114011;27;20039;-90
2022/12/26 06:37:37;;;;;;;21.50;12.23;;;9.10;99.90;;;;;;5113959;27;20115;-90
2022/12/26 06:40:04;;;;;;;21.90;12.32;;;9.10;99.90;;;;;;5113121;27;20047;-90
2022/12/26 06:42:29;;;;;;;21.58;11.90;;;9.20;99.90;;;;;;5113906;27;20039;-89
2022/12/26 06:44:55;;;;;;;18.73;11.68;;;9.20;99.90;;;;;;5113329;27;20047;-90
2022/12/26 06:47:20;;;;;;;20.02;11.95;;;9.20;99.90;;;;;;5114164;27;20070;-90
2022/12/26 06:49:46;;;;;;;22.98;12.90;;;9.20;99.90;;;;;;5110552;28;20042;-89
2022/12/26 06:52:12;;;;;;;21.27;12.27;;;9.20;99.90;;;;;;5113141;27;20039;-90
2022/12/26 06:54:38;;;;;;;20.17;11.50;;;9.20;99.90;;;;;;5132274;27;20481;-89
2022/12/26 06:57:04;;;;;;;20.70;12.35;;;9.20;99.90;;;;;;5096427;27;20088;-89
2022/12/26 06:59:29;;;;;;;19.48;10.82;;;9.10;99.90;;;;;;5113572;28;20062;-90
2022/12/26 07:01:55;;;;;;;23.45;13.00;;;9.10;99.90;;;;;;5114174;28;20042;-90
2022/12/26 07:04:20;;;;;;;25.67;14.25;;;9.10;99.90;;;;;;5106429;28;20035;-90
2022/12/26 07:06:46;;;;;;;22.50;13.07;;;9.10;99.90;;;;;;5113714;28;20043;-89
2022/12/26 07:09:15;;;;;;;21.08;12.18;;;9.10;99.90;;;;;;5109829;28;20046;-90
2022/12/26 07:11:43;;;;;;;24.58;12.77;;;9.00;99.90;;;;;;5110093;28;20396;-89
2022/12/26 07:14:09;;;;;;;22.30;13.80;;;9.00;99.90;;;;;;5113754;28;20404;-89
2022/12/26 07:16:36;;;;;;;22.08;13.50;;;9.00;99.90;;;;;;5108832;28;20034;-90
2022/12/26 07:19:02;;;;;;;23.95;12.98;;;9.00;99.90;;;;;;5113701;28;20043;-90
2022/12/26 07:21:27;;;;;;;25.67;14.90;;;9.00;99.90;;;;;;5111477;28;20079;-90
2022/12/26 07:23:54;;;;;;;22.80;13.63;;;8.90;99.90;;;;;;5095111;28;20139;-90
2022/12/26 07:26:21;;;;;;;24.25;14.63;;;8.90;99.90;;;;;;5111562;28;20052;-90
2022/12/26 07:28:47;;;;;;;25.70;13.93;;;8.90;99.90;;;;;;5112243;28;20496;-90
2022/12/26 07:31:19;;;;;;;22.17;12.60;;;8.80;99.90;;;;;;5113503;28;20043;-91
2022/12/26 07:33:54;;;;;;;20.67;12.48;;;8.80;99.90;;;;;;5105129;28;20039;-91
2022/12/26 07:36:20;;;;;;;25.90;15.10;;;8.80;99.90;;;;;;5113520;28;20050;-90
2022/12/26 07:38:46;;;;;;;23.17;13.57;;;8.80;99.90;;;;;;5107399;28;20031;-90
2022/12/26 07:43:56;;;;;;;19.77;12.98;;;8.80;99.90;;;;;;5096687;28;20043;-90
2022/12/26 07:46:22;;;;;;;20.00;12.95;;;8.80;99.90;;;;;;5123090;27;20032;-90
2022/12/26 07:48:48;;;;;;;22.15;13.05;;;8.80;99.90;;;;;;5079865;28;20055;-90
2022/12/26 07:51:14;;;;;;;24.95;15.35;;;8.80;99.90;;;;;;5098948;27;20047;-90
2022/12/26 07:53:39;;;;;;;22.27;14.27;;;8.80;99.90;;;;;;5132685;27;20408;-90
2022/12/26 07:56:05;;;;;;;22.38;13.40;;;8.80;99.90;;;;;;5096722;28;20075;-91
2022/12/26 07:58:31;;;;;;;22.15;13.00;;;8.80;99.90;;;;;;5101932;27;20070;-90
2022/12/26 08:01:01;;;;;;;20.27;12.48;;;8.80;99.90;;;;;;5135126;27;20063;-90
2022/12/26 08:03:27;;;;;;;20.52;12.45;;;8.80;99.90;;;;;;5117801;27;20043;-90
2022/12/26 08:05:53;;;;;;;23.60;12.77;;;8.80;99.90;;;;;;5124788;27;20049;-90
2022/12/26 08:08:18;;;;;;;20.98;12.25;;;8.80;99.90;;;;;;5096347;28;20039;-90
2022/12/26 08:10:44;;;;;;;21.27;12.13;;;8.80;99.90;;;;;;5119312;27;20106;-90
2022/12/26 08:13:09;;;;;;;20.13;12.35;;;8.80;99.90;;;;;;5099315;28;20439;-90
2022/12/26 08:15:39;;;;;;;16.85;9.48;;;8.80;99.90;;;;;;5096361;27;20389;-89
2022/12/26 08:18:05;;;;;;;18.20;10.20;;;8.80;99.90;;;;;;5116289;27;20046;-90
2022/12/26 08:20:31;;;;;;;17.70;9.98;;;8.80;99.90;;;;;;5116653;27;20527;-90
2022/12/26 08:22:57;;;;;;;17.27;9.05;;;8.80;99.90;;;;;;5101143;28;20071;-90
2022/12/26 08:25:23;;;;;;;16.90;9.10;;;8.80;99.90;;;;;;5096312;28;20378;-90
2022/12/26 08:27:48;;;;;;;15.75;8.90;;;8.80;99.90;;;;;;5098896;27;20039;-90
2022/12/26 08:30:14;;;;;;;13.85;8.05;;;8.80;99.90;;;;;;5115840;27;20077;-90
2022/12/26 08:32:39;;;;;;;15.88;8.77;;;8.80;99.90;;;;;;5116427;27;20054;-90
2022/12/26 08:35:05;;;;;;;16.88;8.73;;;8.80;99.90;;;;;;5112555;28;20050;-90
2022/12/26 08:37:31;;;;;;;15.07;7.38;;;8.80;99.90;;;;;;5114599;27;20553;-90
2022/12/26 08:39:57;;;;;;;12.25;7.28;;;8.80;99.90;;;;;;5116747;27;20088;-89
2022/12/26 08:42:22;;;;;;;12.40;7.32;;;8.90;99.90;;;;;;5102585;28;20155;-89
2022/12/26 08:44:48;;;;;;;11.80;6.05;;;8.90;99.90;;;;;;5112753;28;20051;-90
2022/12/26 08:47:14;;;;;;;11.55;6.55;;;8.90;99.90;;;;;;5095438;28;20055;-90
2022/12/26 08:49:40;;;;;;;12.23;5.60;;;9.00;99.90;;;;;;5111338;27;20041;-90
2022/12/26 08:52:06;;;;;;;12.68;6.25;;;9.10;99.90;;;;;;5126401;27;20038;-90
2022/12/26 08:54:32;;;;;;;14.15;7.35;;;9.10;99.90;;;;;;5119209;27;20034;-91
2022/12/26 08:56:57;;;;;;;16.30;7.40;;;9.20;99.90;;;;;;5116150;27;20058;-90
2022/12/26 08:59:23;;;;;;;11.85;5.57;;;9.20;99.90;;;;;;5110155;27;20473;-91
2022/12/26 09:01:49;;;;;;;11.23;5.53;;;9.20;99.90;;;;;;5116245;27;20051;-90
2022/12/26 09:04:14;;;;;;;12.15;5.65;;;9.30;99.90;;;;;;5114710;27;20074;-90
2022/12/26 09:06:40;;;;;;;11.55;6.10;;;9.30;99.90;;;;;;5115858;27;20058;-90
2022/12/26 09:09:10;;;;;;;15.50;6.28;;;9.40;99.90;;;;;;5129955;27;20036;-90
2022/12/26 09:11:36;;;;;;;14.85;6.28;;;9.40;99.90;;;;;;5098926;27;20031;-90
2022/12/26 09:14:03;;;;;;;11.85;5.57;;;9.50;99.90;;;;;;5114667;27;20464;-90
2022/12/26 09:16:35;;;;;;;9.27;4.70;;;9.50;99.90;;;;;;5107154;28;20043;-90
2022/12/26 09:19:03;;;;;;;;;;;9.50;99.90;;;;;;5118679;27;20034;-90
2022/12/26 09:21:29;;;;;;;7.80;3.42;;;9.60;99.90;;;;;;5142209;27;19929;-90
2022/12/26 09:23:56;;;;;;;11.95;4.20;;;9.70;99.90;;;;;;5141718;27;20037;-90
2022/12/26 09:26:22;;;;;;;9.55;3.72;;;9.70;99.90;;;;;;5125245;27;20042;-90
2022/12/26 09:28:48;;;;;;;9.50;4.20;;;9.70;99.90;;;;;;5104297;27;20536;-89
2022/12/26 09:31:16;;;;;;;8.07;3.70;;;9.70;99.90;;;;;;5144387;27;20026;-90
2022/12/26 09:33:42;;;;;;;10.38;3.83;;;9.80;99.90;;;;;;5121926;27;20047;-90
2022/12/26 09:36:15;;;;;;;11.23;4.22;;;9.80;99.90;;;;;;5123170;27;20046;-91
2022/12/26 09:38:42;;;;;;;7.82;3.20;;;9.80;99.90;;;;;;5119368;27;20038;-91
2022/12/26 09:41:52;;;;;;;10.27;4.65;;;9.80;99.90;;;;;;5141951;27;20043;-91
2022/12/26 09:45:10;;;;;;;7.40;3.15;;;9.80;99.90;;;;;;5125531;27;20381;-90
2022/12/26 09:47:48;;;;;;;7.13;3.20;;;9.80;99.90;;;;;;5063762;27;20062;-90
2022/12/26 09:50:30;;;;;;;9.60;3.13;;;9.90;99.90;;;;;;5115926;27;20083;-90
2022/12/26 09:53:01;;;;;;;8.93;2.67;;;9.90;99.90;;;;;;5113459;27;20046;-90
2022/12/26 09:55:42;;;;;;;6.20;2.58;;;9.90;99.90;;;;;;5082041;28;20047;-90
2022/12/26 09:58:32;;;;;;;7.50;3.08;;;10.00;99.90;;;;;;5094063;28;20412;-91
2022/12/26 10:01:06;;;;;;;5.93;2.00;;;10.10;99.90;;;;;;5098473;28;20039;-90
2022/12/26 10:03:38;;;;;;;5.95;2.35;;;10.10;99.90;;;;;;5092998;28;20051;-90
2022/12/26 10:06:16;;;;;;;6.25;2.10;;;10.10;99.90;;;;;;5107305;27;20039;-90
2022/12/26 10:09:00;;;;;;;5.07;2.22;;;10.10;99.90;;;;;;5114129;27;20047;-90
2022/12/26 10:12:09;;;;;;;5.65;2.40;;;10.20;99.90;;;;;;5108192;28;20455;-90
2022/12/26 10:15:01;;;;;;;11.07;2.88;;;10.20;99.90;;;;;;5093781;28;20409;-90
2022/12/26 10:17:49;;;;;;;4.78;2.03;;;10.10;99.90;;;;;;5098815;28;20044;-90
2022/12/26 10:20:20;;;;;;;8.35;2.63;;;10.10;99.90;;;;;;5076499;28;20075;-91
2022/12/26 10:22:52;;;;;;;5.97;1.95;;;10.10;99.90;;;;;;5095513;27;20089;-90
2022/12/26 10:25:25;;;;;;;4.72;1.75;;;10.00;99.90;;;;;;5093341;28;20050;-90
2022/12/26 10:27:51;;;;;;;5.38;1.65;;;10.00;99.90;;;;;;5093967;28;20050;-91
2022/12/26 10:30:22;;;;;;;4.35;1.30;;;10.00;99.90;;;;;;5113139;27;20057;-90
2022/12/26 10:32:55;;;;;;;6.60;1.67;;;9.80;99.90;;;;;;5113558;27;20047;-91
2022/12/26 10:35:36;;;;;;;4.20;1.27;;;9.50;99.90;;;;;;5120447;27;20047;-90
2022/12/26 10:38:29;;;;;;;5.93;1.60;;;9.20;99.90;;;;;;5093435;28;20040;-90
2022/12/26 10:41:01;;;;;;;7.00;1.13;;;8.90;99.90;;;;;;5093383;28;20085;-90
2022/12/26 10:43:30;;;;;;;3.72;0.90;;;8.70;99.90;;;;;;5096526;28;20043;-89
2022/12/26 10:46:20;;;;;;;6.80;2.25;;;8.70;99.90;;;;;;5093468;28;20082;-90
2022/12/26 10:48:47;;;;;;;5.15;1.13;;;8.70;99.90;;;;;;5092578;28;20047;-90
2022/12/26 10:51:13;;;;;;;7.15;1.20;;;8.70;99.90;;;;;;5093621;28;20051;-90
2022/12/26 10:53:46;;;;;;;6.75;1.23;;;8.80;99.90;;;;;;5109135;28;20085;-90
2022/12/26 10:56:12;;;;;;;7.55;1.40;;;8.80;99.90;;;;;;5113418;28;20082;-90
2022/12/26 10:58:39;;;;;;;4.32;0.80;;;8.90;99.90;;;;;;5111120;27;20058;-90
2022/12/26 11:01:27;;;;;;;5.68;1.17;;;9.00;99.90;;;;;;5112691;28;20531;-90
2022/12/26 11:04:01;;;;;;;4.85;1.08;;;9.00;99.90;;;;;;5104907;28;20104;-90
2022/12/26 11:06:31;;;;;;;5.90;1.13;;;8.90;99.90;;;;;;5113649;28;20057;-90
2022/12/26 11:08:58;;;;;;;5.88;1.10;;;8.80;99.90;;;;;;5107506;28;20047;-89
2022/12/26 11:11:50;;;;;;;5.07;0.70;;;8.70;99.90;;;;;;5111271;28;20035;-90
2022/12/26 11:14:28;;;;;;;3.70;0.65;;;8.70;99.90;;;;;;5097728;27;20808;-89
2022/12/26 11:16:57;;;;;;;5.07;0.85;;;8.60;99.90;;;;;;5122869;27;20142;-90
2022/12/26 11:19:34;;;;;;;5.30;1.02;;;8.60;99.90;;;;;;5117111;27;20039;-90
2022/12/26 11:22:28;;;;;;;5.57;1.35;;;8.60;99.90;;;;;;5117032;27;20042;-90
2022/12/26 11:25:09;;;;;;;2.25;0.60;;;8.50;99.90;;;;;;5117700;27;20618;-90
2022/12/26 11:27:36;;;;;;;5.53;0.68;;;8.40;99.90;;;;;;5113284;28;20498;-89
2022/12/26 11:30:20;;;;;;;2.50;0.52;;;8.30;99.90;;;;;;5113907;28;20489;-90
2022/12/26 11:32:49;;;;;;;6.82;1.00;;;8.30;99.90;;;;;;5087516;27;20043;-89
2022/12/26 11:35:25;;;;;;;3.33;0.40;;;8.30;99.90;;;;;;5117108;27;20042;-90
2022/12/26 11:37:54;;;;;;;6.68;1.05;;;8.30;99.90;;;;;;5117377;27;20408;-90
2022/12/26 11:40:35;;;;;;;4.80;0.80;;;8.20;99.90;;;;;;5115906;27;20042;-90
2022/12/26 11:43:04;;;;;;;8.05;1.15;;;8.20;99.90;;;;;;5116599;27;20047;-90
2022/12/26 11:45:35;;;;;;;5.30;0.73;;;8.20;99.90;;;;;;5114168;27;20047;-90
2022/12/26 11:48:01;;;;;;;5.20;0.65;;;8.20;99.90;;;;;;5099588;28;20047;-88
2022/12/26 11:50:29;;;;;;;7.13;0.88;;;8.10;99.90;;;;;;5126720;27;20039;-90
2022/12/26 11:52:54;;;;;;;4.00;0.60;;;8.10;99.90;;;;;;5125926;27;20054;-90
2022/12/26 11:55:27;;;;;;;8.93;1.60;;;8.10;99.90;;;;;;5125673;27;20039;-90
2022/12/26 11:57:57;;;;;;;3.63;0.82;;;8.00;99.90;;;;;;5125907;27;20066;-89
2022/12/26 12:00:23;;;;;;;5.47;0.80;;;8.00;99.90;;;;;;5126068;27;20037;-90
2022/12/26 12:02:49;;;;;;;10.27;1.30;;;8.00;99.90;;;;;;5124369;27;20043;-89
2022/12/26 12:05:44;;;;;;;6.07;0.90;;;8.00;99.90;;;;;;5122954;27;20046;-89
2022/12/26 12:08:49;;;;;;;4.22;0.68;;;8.00;99.90;;;;;;5155869;27;20361;-90
2022/12/26 12:11:27;;;;;;;4.65;0.68;;;8.00;99.90;;;;;;5120123;27;20427;-89
2022/12/26 12:14:17;;;;;;;6.47;0.85;;;8.00;99.90;;;;;;5143215;27;20118;-89
2022/12/26 12:16:51;;;;;;;6.03;0.98;;;8.00;99.90;;;;;;5131829;27;20080;-89
2022/12/26 12:19:48;;;;;;;10.27;2.10;;;8.10;99.90;;;;;;5117056;27;20057;-89
2022/12/26 12:22:23;;;;;;;9.43;1.63;;;8.20;99.90;;;;;;5108490;27;20103;-89
2022/12/26 12:25:26;;;;;;;6.57;0.95;;;8.20;99.90;;;;;;5114579;27;20043;-89
2022/12/26 12:28:22;;;;;;;6.03;1.35;;;8.10;99.90;;;;;;5020533;28;20057;-89
2022/12/26 12:31:06;;;;;;;11.00;1.85;;;8.10;99.90;;;;;;5017548;28;20113;-89
2022/12/26 12:33:55;;;;;;;5.13;1.52;;;8.20;99.90;;;;;;5026929;28;20462;-89
2022/12/26 12:36:41;;;;;;;9.18;1.00;;;8.10;99.90;;;;;;5020418;28;20045;-89
2022/12/26 12:39:18;;;;;;;6.78;1.38;;;8.50;99.90;;;;;;5025463;28;20056;-89
2022/12/26 12:42:06;;;;;;;12.40;1.25;;;8.90;99.90;;;;;;5029331;28;20626;-89
2022/12/26 12:44:43;;;;;;;8.90;1.55;;;9.10;99.90;;;;;;5027960;28;20144;-90
2022/12/26 12:47:34;;;;;;;15.07;2.53;;;10.10;99.90;;;;;;5041411;28;20040;-89
2022/12/26 12:50:17;;;;;;;14.23;1.83;;;11.00;99.90;;;;;;5037825;28;20514;-89
2022/12/26 12:52:49;;;;;;;12.00;1.75;;;12.50;99.80;;;;;;5022113;28;20112;-89
2022/12/26 12:55:20;;;;;;;11.52;1.55;;;13.30;91.20;;;;;;5020995;28;20046;-88
2022/12/26 12:57:58;;;;;;;10.43;2.60;;;14.20;87.90;;;;;;5020440;28;20045;-90
2022/12/26 13:00:39;;;;;;;11.50;2.53;;;14.90;73.50;;;;;;5014003;28;20057;-90
2022/12/26 13:03:11;;;;;;;11.32;2.92;;;15.80;75.30;;;;;;5024072;28;20088;-90
2022/12/26 13:05:56;;;;;;;11.10;2.72;;;16.10;67.90;;;;;;5095049;28;20048;-89
2022/12/26 13:08:25;;;;;;;12.10;2.60;;;16.20;65.70;;;;;;5095065;28;20044;-90
2022/12/26 13:10:56;;;;;;;10.20;2.55;;;15.90;67.00;;;;;;5098850;28;20039;-90
2022/12/26 13:13:25;;;;;;;12.15;2.80;;;16.00;66.20;;;;;;5094636;28;20405;-90
2022/12/26 13:15:56;;;;;;;11.05;2.70;;;15.80;65.60;;;;;;5097571;27;20047;-90
2022/12/26 13:18:28;;;;;;;14.15;3.13;;;15.70;65.40;;;;;;5094956;28;20442;-90
2022/12/26 13:20:59;;;;;;;13.35;3.17;;;15.60;65.30;;;;;;5094865;28;20123;-90
2022/12/26 13:26:47;;;;;;;15.73;3.45;;;15.20;65.80;;;;;;5095082;28;20588;-90
2022/12/26 13:29:33;;;;;;;12.88;3.08;;;15.00;64.30;;;;;;5099796;27;20047;-89
2022/12/26 13:31:59;;;;;;;13.55;3.53;;;14.50;64.70;;;;;;5094566;28;20047;-89
2022/12/26 13:34:25;;;;;;;11.52;3.17;;;14.20;64.70;;;;;;5094662;27;20485;-89
2022/12/26 13:36:54;;;;;;;15.43;3.60;;;14.20;64.90;;;;;;5095147;28;20043;-89
2022/12/26 13:39:26;;;;;;;12.55;3.20;;;14.40;64.80;;;;;;5111916;28;20057;-89
2022/12/26 13:44:51;;;;;;;16.67;3.38;;;14.90;65.60;;;;;;5113267;27;20043;-89
2022/12/26 13:47:35;;;;;;;12.00;2.90;;;15.00;64.00;;;;;;5110070;27;20043;-89
2022/12/26 13:50:39;;;;;;;12.35;3.20;;;14.60;63.60;;;;;;5114638;27;20088;-89
2022/12/26 13:53:24;;;;;;;13.38;3.30;;;14.60;64.30;;;;;;5131562;27;20103;-89
2022/12/26 13:56:01;;;;;;;10.00;2.05;;;14.00;63.90;;;;;;5114507;27;20058;-89
2022/12/26 13:58:38;;;;;;;13.50;2.97;;;13.40;65.60;;;;;;5109748;27;20035;-89
2022/12/26 14:01:23;;;;;;;13.95;2.85;;;13.20;65.70;;;;;;5114482;27;20043;-89
2022/12/26 14:04:25;;;;;;;15.00;3.50;;;12.70;65.40;;;;;;5114147;27;20434;-90
2022/12/26 14:07:17;;;;;;;10.32;1.80;;;11.90;66.80;;;;;;5110408;28;20043;-89
2022/12/26 14:10:11;;;;;;;9.57;1.70;;;11.00;69.70;;;;;;5115329;27;20043;-89
2022/12/26 14:12:55;;;;;;;13.27;2.42;;;10.70;71.50;;;;;;5093664;28;20417;-89
2022/12/26 14:15:35;;;;;;;13.65;2.55;;;11.00;73.00;;;;;;5094058;28;20075;-90
2022/12/26 14:18:21;;;;;;;10.77;1.92;;;11.30;72.70;;;;;;5106481;27;20035;-90
2022/12/26 14:20:59;;;;;;;8.40;1.92;;;11.80;72.00;;;;;;5114513;27;20050;-90
2022/12/26 14:24:08;;;;;;;12.13;3.72;;;12.20;71.30;;;;;;5098924;28;20524;-90
2022/12/26 14:26:52;;;;;;;18.15;3.83;;;12.60;69.20;;;;;;5094082;28;20036;-90
2022/12/26 14:29:40;;;;;;;13.65;2.88;;;12.40;70.30;;;;;;5108122;27;20047;-90
2022/12/26 14:32:43;;;;;;;12.38;2.13;;;12.20;71.90;;;;;;5086273;27;20130;-90
2022/12/26 14:35:31;;;;;;;10.32;2.28;;;12.00;72.20;;;;;;5126901;27;20437;-90
2022/12/26 14:38:16;;;;;;;14.13;2.55;;;11.90;73.50;;;;;;5114316;27;20047;-90
2022/12/26 14:41:00;;;;;;;12.32;1.92;;;11.40;73.90;;;;;;5124485;27;20027;-90
2022/12/26 14:43:35;;;;;;;11.75;1.95;;;10.80;74.80;;;;;;5113950;27;20046;-90
2022/12/26 14:46:33;;;;;;;10.20;2.17;;;10.40;76.40;;;;;;5113587;27;20076;-90
2022/12/26 14:49:36;;;;;;;10.35;1.25;;;10.00;77.70;;;;;;5075778;28;20051;-90
2022/12/26 14:52:23;;;;;;;10.60;1.80;;;9.70;79.10;;;;;;5112101;27;20047;-89
2022/12/26 14:54:50;;;;;;;10.02;1.88;;;9.20;80.80;;;;;;5096662;28;20048;-90
2022/12/26 14:57:42;;;;;;;10.23;1.65;;;8.80;83.00;;;;;;5093461;28;20054;-89
2022/12/26 15:00:20;;;;;;;9.18;1.88;;;8.50;85.20;;;;;;5110874;27;20079;-91
2022/12/26 15:02:58;;;;;;;7.78;1.83;;;8.20;88.50;;;;;;5113606;28;20043;-89
2022/12/26 15:05:33;;;;;;;12.73;1.75;;;7.90;91.00;;;;;;5107028;28;20043;-89
2022/12/26 15:08:27;;;;;;;14.57;2.40;;;7.80;92.70;;;;;;5093564;28;20156;-90
2022/12/26 15:11:02;;;;;;;7.97;1.38;;;7.60;94.20;;;;;;5102121;28;20509;-89
2022/12/26 15:13:59;;;;;;;8.10;1.67;;;7.40;95.60;;;;;;5131202;28;20035;-90
2022/12/26 15:16:40;;;;;;;7.88;1.90;;;7.30;97.80;;;;;;5055458;28;20055;-89
2022/12/26 15:19:19;;;;;;;13.10;1.55;;;7.20;97.90;;;;;;5119930;27;20046;-90
2022/12/26 15:22:22;;;;;;;12.02;1.65;;;7.10;99.90;;;;;;5122111;27;20488;-89
2022/12/26 15:24:50;;;;;;;12.15;1.73;;;7.00;99.90;;;;;;5119552;27;20042;-90
2022/12/26 15:27:34;;;;;;;11.77;1.90;;;7.00;99.90;;;;;;5118253;27;20069;-89